createdAt,value
2018-12-08T00:00:54.700Z,45.27
2018-12-08T00:03:22.200Z,43.20
2018-12-08T00:05:49.711Z,35.10
2018-12-08T00:08:17.179Z,30.87
2018-12-08T00:10:44.723Z,34.17
2018-12-08T00:13:12.192Z,31.27
2018-12-08T00:15:39.695Z,30.13
2018-12-08T00:18:07.445Z,31.83
2018-12-08T00:20:34.979Z,30.88
2018-12-08T00:23:02.545Z,30.03
2018-12-08T00:25:30.160Z,32.40
2018-12-08T00:27:57.640Z,31.30
2018-12-08T00:30:36.989Z,31.80
2018-12-08T00:33:04.483Z,28.17
2018-12-08T00:35:32.001Z,27.47
2018-12-08T00:37:59.480Z,23.90
2018-12-08T00:40:27.129Z,20.47
2018-12-08T00:42:54.612Z,23.63
2018-12-08T00:45:22.153Z,24.23
2018-12-08T00:47:49.646Z,23.10
2018-12-08T00:50:17.320Z,27.13
2018-12-08T00:52:45.079Z,22.73
2018-12-08T00:55:12.554Z,24.33
2018-12-08T00:57:40.068Z,25.47
2018-12-08T01:00:07.632Z,26.10
2018-12-08T01:02:35.218Z,23.20
2018-12-08T01:05:02.695Z,23.50
2018-12-08T01:07:30.281Z,23.03
2018-12-08T01:09:57.783Z,20.97
2018-12-08T01:12:25.373Z,22.27
2018-12-08T01:14:52.957Z,19.00
2018-12-08T01:17:20.432Z,21.40
2018-12-08T01:19:47.936Z,21.87
2018-12-08T01:22:21.333Z,22.53
2018-12-08T01:24:48.827Z,21.73
2018-12-08T01:27:16.493Z,21.03
2018-12-08T01:29:43.971Z,23.60
2018-12-08T01:32:11.448Z,22.47
2018-12-08T01:34:38.956Z,21.70
2018-12-08T01:37:06.431Z,20.20
2018-12-08T01:39:34.355Z,21.63
2018-12-08T01:42:02.002Z,21.80
2018-12-08T01:44:30.564Z,24.83
2018-12-08T01:46:58.076Z,23.93
2018-12-08T01:49:25.556Z,24.67
2018-12-08T01:51:53.172Z,26.60
2018-12-08T01:54:20.695Z,28.93
2018-12-08T01:56:48.221Z,27.23
2018-12-08T01:59:15.739Z,28.43
2018-12-08T02:01:43.261Z,30.13
2018-12-08T02:04:10.799Z,40.20
2018-12-08T02:06:38.287Z,39.20
2018-12-08T02:09:08.103Z,30.60
2018-12-08T02:11:35.759Z,29.57
2018-12-08T02:14:03.439Z,27.93
2018-12-08T02:16:31.059Z,30.40
2018-12-08T02:18:58.658Z,32.37
2018-12-08T02:21:26.325Z,33.87
2018-12-08T02:23:53.805Z,31.87
2018-12-08T02:26:21.284Z,30.40
2018-12-08T02:28:48.880Z,31.83
2018-12-08T02:31:16.369Z,31.47
2018-12-08T02:33:43.951Z,29.33
2018-12-08T02:36:11.484Z,30.17
2018-12-08T02:38:39.013Z,29.87
2018-12-08T02:41:07.692Z,30.03
2018-12-08T02:43:35.196Z,28.20
2018-12-08T02:46:02.692Z,28.67
2018-12-08T02:48:30.195Z,27.33
2018-12-08T02:50:57.672Z,26.73
2018-12-08T02:53:25.383Z,27.43
2018-12-08T02:55:52.860Z,30.10
2018-12-08T02:58:20.627Z,61.63
2018-12-08T03:00:48.137Z,90.53
2018-12-08T03:03:15.615Z,47.87
2018-12-08T03:05:43.225Z,30.33
2018-12-08T03:08:10.701Z,21.37
2018-12-08T03:10:38.254Z,20.83
2018-12-08T03:13:07.581Z,13.80
2018-12-08T03:15:36.191Z,14.30
2018-12-08T03:18:04.002Z,12.07
2018-12-08T03:20:31.470Z,11.00
2018-12-08T03:22:59.950Z,10.77
2018-12-08T03:25:28.796Z,11.10
2018-12-08T03:27:56.547Z,9.03
2018-12-08T03:30:27.904Z,6.23
2018-12-08T03:32:55.475Z,9.60
2018-12-08T03:35:30.007Z,8.90
2018-12-08T03:37:58.855Z,8.20
2018-12-08T03:40:26.414Z,6.43
2018-12-08T03:42:54.228Z,7.33
2018-12-08T03:45:21.823Z,5.13
2018-12-08T03:47:49.327Z,5.57
2018-12-08T03:50:17.444Z,4.70
2018-12-08T03:52:44.947Z,5.57
2018-12-08T03:55:12.825Z,5.13
2018-12-08T03:57:40.311Z,5.03
2018-12-08T04:00:09.102Z,2.90
2018-12-08T04:02:36.613Z,2.10
2018-12-08T04:05:04.695Z,1.50
2018-12-08T04:07:32.358Z,1.87
2018-12-08T04:10:00.137Z,3.20
2018-12-08T04:12:27.610Z,1.53
2018-12-08T04:14:55.145Z,6.90
2018-12-08T04:17:22.623Z,1.33
2018-12-08T04:19:50.152Z,1.53
2018-12-08T04:22:17.641Z,1.83
2018-12-08T04:24:45.255Z,1.40
2018-12-08T04:27:12.739Z,2.17
2018-12-08T04:29:40.236Z,1.17
2018-12-08T04:34:42.825Z,1.47
2018-12-08T04:37:10.485Z,1.47
2018-12-08T04:39:37.961Z,1.20
2018-12-08T04:42:05.419Z,1.03
2018-12-08T04:44:32.933Z,1.27
2018-12-08T04:47:00.396Z,2.33
2018-12-08T04:49:27.953Z,2.37
2018-12-08T04:51:55.423Z,4.53
2018-12-08T04:54:23.071Z,2.97
2018-12-08T04:56:50.531Z,4.70
2018-12-08T04:59:17.991Z,1.13
2018-12-08T05:01:45.489Z,5.07
2018-12-08T05:04:12.975Z,2.80
2018-12-08T05:06:40.482Z,4.07
2018-12-08T05:09:07.971Z,4.60
2018-12-08T05:11:35.482Z,2.13
2018-12-08T05:14:03.024Z,4.30
2018-12-08T05:16:30.487Z,2.47
2018-12-08T05:18:59.124Z,3.83
2018-12-08T05:21:26.597Z,2.97
2018-12-08T05:23:54.061Z,6.00
2018-12-08T05:26:21.556Z,4.73
2018-12-08T05:28:49.015Z,2.93
2018-12-08T05:31:16.752Z,3.17
2018-12-08T05:33:44.229Z,4.00
2018-12-08T05:36:11.696Z,5.13
2018-12-08T05:38:39.236Z,4.37
2018-12-08T05:41:06.695Z,6.33
2018-12-08T05:43:34.194Z,2.37
2018-12-08T05:46:01.721Z,1.90
2018-12-08T05:48:29.243Z,3.27
2018-12-08T05:50:56.723Z,1.63
2018-12-08T05:53:24.183Z,5.27
2018-12-08T05:55:51.691Z,3.60
2018-12-08T05:58:19.166Z,2.70
2018-12-08T06:00:47.705Z,4.10
2018-12-08T06:03:15.191Z,3.00
2018-12-08T06:05:42.651Z,4.17
2018-12-08T06:08:10.163Z,2.30
2018-12-08T06:10:37.670Z,5.60
2018-12-08T06:13:05.215Z,5.07
2018-12-08T06:15:32.871Z,4.80
2018-12-08T06:18:00.355Z,2.77
2018-12-08T06:20:27.855Z,3.43
2018-12-08T06:22:55.335Z,4.70
2018-12-08T06:25:25.537Z,3.73
2018-12-08T06:28:01.877Z,5.60
2018-12-08T06:30:29.386Z,2.67
2018-12-08T06:32:56.875Z,4.40
2018-12-08T06:35:24.393Z,2.80
2018-12-08T06:37:51.902Z,2.57
2018-12-08T06:40:19.414Z,7.37
2018-12-08T06:42:46.940Z,2.20
2018-12-08T06:45:14.413Z,2.60
2018-12-08T06:47:41.902Z,3.23
2018-12-08T06:50:09.429Z,5.33
2018-12-08T06:52:36.919Z,3.77
2018-12-08T06:55:04.451Z,3.33
2018-12-08T06:57:31.924Z,2.20
2018-12-08T06:59:59.391Z,3.23
2018-12-08T07:02:26.976Z,3.53
2018-12-08T07:04:54.486Z,2.30
2018-12-08T07:07:22.039Z,4.80
2018-12-08T07:09:49.503Z,3.83
2018-12-08T07:12:16.995Z,3.30
2018-12-08T07:14:45.495Z,2.53
2018-12-08T07:17:13.098Z,10.20
2018-12-08T07:19:40.572Z,4.07
2018-12-08T07:22:08.071Z,5.30
2018-12-08T07:24:35.599Z,3.60
2018-12-08T07:27:03.064Z,8.90
2018-12-08T07:29:30.579Z,2.37
2018-12-08T07:31:58.047Z,2.80
2018-12-08T07:34:25.858Z,2.30
2018-12-08T07:36:53.444Z,3.30
2018-12-08T07:39:20.924Z,6.10
2018-12-08T07:41:48.539Z,1.27
2018-12-08T07:44:16.100Z,4.10
2018-12-08T07:46:43.739Z,1.67
2018-12-08T07:49:11.209Z,2.97
2018-12-08T07:51:38.747Z,3.33
2018-12-08T07:54:06.242Z,5.23
2018-12-08T07:56:33.828Z,2.83
2018-12-08T07:59:01.479Z,4.77
2018-12-08T08:01:31.007Z,3.07
2018-12-08T08:03:58.465Z,5.40
2018-12-08T08:06:26.080Z,3.67
2018-12-08T08:08:53.559Z,5.70
2018-12-08T08:11:21.079Z,2.73
2018-12-08T08:13:48.547Z,2.47
2018-12-08T08:16:16.077Z,2.17
2018-12-08T08:18:43.625Z,4.73
2018-12-08T08:21:11.300Z,1.43
2018-12-08T08:23:38.780Z,3.00
2018-12-08T08:26:06.265Z,2.63
2018-12-08T08:28:33.901Z,2.33
2018-12-08T08:31:01.424Z,2.47
2018-12-08T08:33:29.032Z,1.80
2018-12-08T08:35:56.664Z,4.13
2018-12-08T08:38:24.187Z,2.27
2018-12-08T08:40:51.664Z,3.00
2018-12-08T08:43:19.144Z,4.23
2018-12-08T08:45:46.850Z,2.47
2018-12-08T08:48:14.341Z,4.47
2018-12-08T08:50:41.825Z,1.60
2018-12-08T08:53:09.440Z,3.43
2018-12-08T08:55:36.913Z,3.50
2018-12-08T08:58:04.418Z,2.90
2018-12-08T09:00:31.884Z,3.27
2018-12-08T09:02:59.399Z,2.83
2018-12-08T09:05:26.933Z,4.27
2018-12-08T09:07:54.548Z,4.23
2018-12-08T09:10:22.046Z,4.23
2018-12-08T09:12:49.543Z,2.47
2018-12-08T09:15:17.049Z,3.90
2018-12-08T09:17:44.686Z,3.80
2018-12-08T09:20:12.428Z,1.80
2018-12-08T09:22:39.895Z,3.30
2018-12-08T09:25:08.109Z,4.40
2018-12-08T09:27:35.763Z,4.00
2018-12-08T09:30:05.167Z,3.58
2018-12-08T09:32:32.679Z,3.50
2018-12-08T09:35:00.156Z,2.60
2018-12-08T09:37:27.674Z,3.40
2018-12-08T09:39:57.087Z,6.33
2018-12-08T09:42:24.719Z,2.87
2018-12-08T09:44:52.398Z,4.20
2018-12-08T09:47:19.928Z,4.67
2018-12-08T09:49:47.475Z,4.70
2018-12-08T09:52:14.970Z,4.60
2018-12-08T09:54:42.659Z,6.43
2018-12-08T09:57:10.173Z,4.63
2018-12-08T09:59:37.702Z,4.73
2018-12-08T10:02:06.136Z,5.80
2018-12-08T10:04:33.608Z,5.47
2018-12-08T10:07:01.406Z,6.20
2018-12-08T10:09:28.895Z,5.37
2018-12-08T10:11:56.420Z,4.63
2018-12-08T10:14:24.001Z,4.13
2018-12-08T10:16:51.478Z,3.97
2018-12-08T10:19:19.331Z,5.33
2018-12-08T10:21:46.810Z,5.60
2018-12-08T10:24:14.283Z,6.33
2018-12-08T10:26:41.824Z,4.23
2018-12-08T10:29:09.448Z,8.67
2018-12-08T10:31:37.076Z,3.50
2018-12-08T10:34:04.539Z,5.53
2018-12-08T10:36:32.000Z,5.73
2018-12-08T10:38:59.512Z,6.27
2018-12-08T10:41:27.080Z,5.67
2018-12-08T10:43:54.607Z,5.83
2018-12-08T10:46:22.198Z,8.80
2018-12-08T10:48:49.903Z,3.47
2018-12-08T10:51:17.371Z,2.40
2018-12-08T10:53:44.846Z,4.00
2018-12-08T10:56:12.353Z,3.57
2018-12-08T10:58:39.868Z,4.40
2018-12-08T11:01:09.439Z,4.40
2018-12-08T11:03:46.147Z,3.23
2018-12-08T11:06:14.226Z,3.87
2018-12-08T11:08:41.782Z,3.63
2018-12-08T11:11:09.259Z,5.60
2018-12-08T11:13:36.805Z,6.40
2018-12-08T11:16:04.361Z,3.77
2018-12-08T11:18:31.963Z,4.00
2018-12-08T11:20:59.452Z,4.33
2018-12-08T11:23:28.052Z,6.00
2018-12-08T11:25:55.683Z,5.33
2018-12-08T11:28:23.258Z,7.67
2018-12-08T11:30:50.983Z,5.70
2018-12-08T11:33:18.484Z,5.70
2018-12-08T11:35:45.980Z,5.60
2018-12-08T11:38:15.512Z,7.63
2018-12-08T11:40:43.029Z,6.47
2018-12-08T11:43:11.628Z,7.93
2018-12-08T11:45:39.154Z,6.33
2018-12-08T11:48:06.837Z,7.87
2018-12-08T11:50:34.435Z,7.33
2018-12-08T11:53:01.958Z,7.43
2018-12-08T11:55:30.341Z,7.47
2018-12-08T11:57:58.304Z,4.93
2018-12-08T12:00:27.674Z,3.40
2018-12-08T12:02:55.932Z,3.93
2018-12-08T12:05:23.719Z,4.03
2018-12-08T12:07:51.295Z,2.57
2018-12-08T12:10:18.811Z,3.00
2018-12-08T12:12:46.310Z,2.00
2018-12-08T12:15:13.840Z,2.17
2018-12-08T12:17:41.407Z,3.63
2018-12-08T12:20:08.986Z,1.83
2018-12-08T12:22:36.631Z,3.03
2018-12-08T12:25:05.801Z,2.30
2018-12-08T12:27:33.357Z,3.87
2018-12-08T12:30:00.920Z,3.70
2018-12-08T12:32:28.462Z,4.60
2018-12-08T12:34:55.922Z,5.27
2018-12-08T12:37:23.394Z,7.43
2018-12-08T12:39:50.900Z,5.30
2018-12-08T12:42:18.411Z,4.90
2018-12-08T12:44:45.917Z,5.67
2018-12-08T12:47:13.392Z,4.43
2018-12-08T12:49:40.920Z,4.23
2018-12-08T12:52:08.602Z,2.83
2018-12-08T12:54:37.203Z,3.73
2018-12-08T12:57:04.757Z,5.27
2018-12-08T12:59:32.241Z,3.63
2018-12-08T13:01:59.756Z,4.87
2018-12-08T13:04:27.249Z,4.37
2018-12-08T13:07:15.075Z,4.90
2018-12-08T13:09:55.952Z,4.30
2018-12-08T13:12:30.604Z,2.73
2018-12-08T13:15:02.355Z,5.10
2018-12-08T13:17:34.195Z,11.73
2018-12-08T13:20:06.376Z,6.63
2018-12-08T13:22:37.809Z,6.33
2018-12-08T13:25:21.735Z,4.00
2018-12-08T13:27:53.307Z,3.40
2018-12-08T13:37:14.188Z,4.03
2018-12-08T13:39:44.688Z,3.57
2018-12-08T13:42:15.073Z,7.00
2018-12-08T13:44:45.620Z,2.50
2018-12-08T13:47:16.000Z,3.90
2018-12-08T13:49:46.552Z,3.03
2018-12-08T13:52:16.980Z,2.62
2018-12-08T13:54:47.751Z,5.50
2018-12-08T13:57:19.035Z,9.17
2018-12-08T13:59:51.196Z,6.07
2018-12-08T14:02:21.750Z,2.57
2018-12-08T14:04:52.229Z,4.40
2018-12-08T14:07:22.387Z,3.87
2018-12-08T14:09:52.489Z,4.90
2018-12-08T14:12:22.288Z,4.00
2018-12-08T14:14:51.908Z,4.07
2018-12-08T14:17:21.778Z,3.33
2018-12-08T14:19:51.727Z,4.80
2018-12-08T14:22:21.620Z,5.40
2018-12-08T14:24:51.556Z,4.13
2018-12-08T14:27:21.472Z,5.30
2018-12-08T14:29:51.391Z,6.27
2018-12-08T14:32:21.283Z,7.87
2018-12-08T14:34:51.118Z,5.83
2018-12-08T14:37:21.071Z,5.33
2018-12-08T14:39:51.383Z,5.77
2018-12-08T14:42:21.489Z,5.67
2018-12-08T14:44:51.691Z,5.63
2018-12-08T14:47:21.544Z,7.17
2018-12-08T14:49:51.327Z,8.20
2018-12-08T14:52:21.266Z,6.93
2018-12-08T14:54:51.167Z,9.13
2018-12-08T14:57:20.911Z,8.70
2018-12-08T14:59:50.680Z,9.50
2018-12-08T15:02:20.504Z,10.83
2018-12-08T15:04:50.293Z,12.00
2018-12-08T15:07:20.016Z,10.47
2018-12-08T15:09:49.758Z,10.10
2018-12-08T15:12:20.586Z,11.07
2018-12-08T15:14:50.541Z,12.57
2018-12-08T15:17:20.215Z,17.93
2018-12-08T15:19:49.891Z,14.67
2018-12-08T15:22:19.589Z,14.37
2018-12-08T15:24:49.136Z,11.40
2018-12-08T15:27:18.897Z,10.00
2018-12-08T15:29:48.362Z,12.83
2018-12-08T15:32:17.733Z,15.83
2018-12-08T15:34:47.108Z,12.00
2018-12-08T15:37:16.440Z,10.20
2018-12-08T15:39:45.829Z,12.27
2018-12-08T15:42:15.113Z,10.80
2018-12-08T15:44:44.410Z,12.07
2018-12-08T15:47:13.635Z,11.27
2018-12-08T15:49:44.061Z,12.63
2018-12-08T15:52:13.188Z,9.70
2018-12-08T15:54:42.289Z,12.67
2018-12-08T15:57:12.493Z,14.90
2018-12-08T15:59:42.594Z,15.23
2018-12-08T16:02:11.739Z,11.90
2018-12-08T16:04:40.933Z,10.73
2018-12-08T16:07:10.158Z,7.30
2018-12-08T16:09:39.375Z,6.23
2018-12-08T16:12:08.740Z,6.37
2018-12-08T16:14:37.915Z,5.90
2018-12-08T16:17:07.183Z,5.60
2018-12-08T16:19:37.519Z,9.00
2018-12-08T16:22:07.781Z,7.03
2018-12-08T16:24:37.116Z,12.20
2018-12-08T16:27:06.283Z,17.03
2018-12-08T16:29:35.448Z,19.03
2018-12-08T16:32:04.659Z,21.23
2018-12-08T16:34:33.900Z,25.63
2018-12-08T16:37:03.409Z,22.07
2018-12-08T16:39:32.577Z,35.63
2018-12-08T16:42:01.743Z,38.23
2018-12-08T16:44:30.949Z,24.77
2018-12-08T16:47:00.120Z,16.00
2018-12-08T16:49:29.428Z,23.23
2018-12-08T16:51:58.571Z,17.63
2018-12-08T16:54:28.673Z,19.77
2018-12-08T16:56:57.773Z,22.30
2018-12-08T16:59:26.871Z,16.27
2018-12-08T17:01:56.139Z,13.50
2018-12-08T17:04:25.199Z,22.47
2018-12-08T17:06:54.279Z,11.03
2018-12-08T17:09:23.325Z,17.10
2018-12-08T17:11:53.338Z,14.73
2018-12-08T17:14:22.523Z,14.47
2018-12-08T17:16:51.551Z,18.23
2018-12-08T17:19:20.574Z,23.47
2018-12-08T17:21:49.591Z,21.30
2018-12-08T17:24:18.530Z,29.33
2018-12-08T17:26:47.547Z,16.83
2018-12-08T17:29:16.565Z,17.40
2018-12-08T17:31:45.587Z,19.10
2018-12-08T17:34:14.651Z,32.10
2018-12-08T17:36:43.774Z,37.83
2018-12-08T17:39:12.951Z,17.93
2018-12-08T17:41:41.961Z,7.50
2018-12-08T17:44:11.090Z,10.83
2018-12-08T17:46:40.141Z,6.97
2018-12-08T17:49:09.255Z,8.40
2018-12-08T17:51:38.522Z,7.80
2018-12-08T17:54:07.955Z,14.27
2018-12-08T17:56:37.161Z,18.03
2018-12-08T17:59:06.326Z,14.00
2018-12-08T18:01:35.469Z,13.57
2018-12-08T18:04:04.771Z,18.30
2018-12-08T18:06:34.811Z,18.70
2018-12-08T18:09:07.105Z,12.97
2018-12-08T18:11:36.568Z,18.43
2018-12-08T18:14:05.541Z,17.33
2018-12-08T18:16:34.561Z,15.97
2018-12-08T18:19:03.571Z,12.37
2018-12-08T18:21:32.764Z,14.40
2018-12-08T18:24:02.103Z,13.80
2018-12-08T18:26:31.083Z,13.20
2018-12-08T18:29:00.201Z,12.40
2018-12-08T18:31:29.215Z,10.60
2018-12-08T18:33:58.208Z,12.47
2018-12-08T18:36:27.292Z,10.30
2018-12-08T18:38:56.266Z,11.37
2018-12-08T18:41:25.267Z,11.40
2018-12-08T18:43:54.311Z,13.50
2018-12-08T18:46:24.272Z,12.77
2018-12-08T18:48:53.573Z,17.87
2018-12-08T18:51:22.565Z,25.90
2018-12-08T18:53:51.590Z,25.27
2018-12-08T18:56:20.640Z,17.50
2018-12-08T18:58:53.454Z,13.77
2018-12-08T19:01:22.541Z,19.03
2018-12-08T19:03:51.607Z,17.77
2018-12-08T19:06:20.664Z,32.87
2018-12-08T19:08:49.851Z,31.70
2018-12-08T19:11:19.958Z,24.77
2018-12-08T19:13:49.175Z,23.67
2018-12-08T19:16:18.276Z,24.37
2018-12-08T19:18:47.356Z,21.23
2018-12-08T19:21:16.431Z,17.00
2018-12-08T19:23:45.484Z,13.53
2018-12-08T19:26:14.536Z,9.93
2018-12-08T19:28:43.622Z,10.10
2018-12-08T19:31:13.852Z,8.97
2018-12-08T19:33:42.930Z,8.90
2018-12-08T19:36:12.043Z,9.37
2018-12-08T19:38:41.183Z,9.80
2018-12-08T19:41:10.285Z,9.57
2018-12-08T19:43:39.705Z,9.90
2018-12-08T19:46:08.832Z,11.40
2018-12-08T19:48:38.010Z,11.50
2018-12-08T19:51:07.227Z,10.80
2018-12-08T19:53:36.434Z,12.83
2018-12-08T19:56:05.605Z,19.27
2018-12-08T19:58:34.783Z,18.73
2018-12-08T20:01:04.068Z,15.80
2018-12-08T20:03:33.432Z,16.03
2018-12-08T20:06:02.633Z,23.03
2018-12-08T20:08:31.834Z,24.80
2018-12-08T20:11:01.089Z,27.00
2018-12-08T20:13:30.240Z,28.30
2018-12-08T20:15:59.845Z,32.70
2018-12-08T20:18:28.998Z,24.40
2018-12-08T20:20:58.124Z,24.43
2018-12-08T20:23:27.307Z,21.07
2018-12-08T20:25:56.504Z,21.53
2018-12-08T20:28:25.770Z,21.40
2018-12-08T20:30:54.919Z,20.63
2018-12-08T20:33:24.787Z,14.77
2018-12-08T20:35:53.899Z,16.93
2018-12-08T20:38:23.101Z,16.03
2018-12-08T20:40:52.277Z,14.93
2018-12-08T20:43:21.412Z,15.67
2018-12-08T20:45:50.684Z,15.97
2018-12-08T20:48:19.783Z,15.40
2018-12-08T20:50:48.852Z,20.37
2018-12-08T20:53:17.921Z,33.30
2018-12-08T20:55:47.012Z,31.27
2018-12-08T20:58:17.074Z,22.13
2018-12-08T21:00:46.156Z,17.80
2018-12-08T21:03:15.295Z,13.27
2018-12-08T21:05:44.334Z,8.83
2018-12-08T21:08:13.494Z,10.20
2018-12-08T21:10:43.568Z,12.33
2018-12-08T21:13:12.546Z,8.87
2018-12-08T21:15:41.568Z,7.43
2018-12-08T21:18:10.604Z,7.33
2018-12-08T21:20:39.813Z,8.65
2018-12-08T21:23:09.704Z,9.60
2018-12-08T21:25:38.645Z,8.87
2018-12-08T21:28:07.672Z,10.83
2018-12-08T21:30:37.536Z,18.43
2018-12-08T21:33:06.515Z,15.27
2018-12-08T21:35:35.444Z,8.90
2018-12-08T21:38:04.537Z,13.23
2018-12-08T21:40:33.495Z,10.53
2018-12-08T21:43:02.439Z,15.47
2018-12-08T21:45:31.423Z,23.30
2018-12-08T21:48:00.355Z,25.30
2018-12-08T21:50:29.403Z,31.40
2018-12-08T21:52:58.321Z,19.17
2018-12-08T21:55:27.243Z,16.67
2018-12-08T21:57:56.191Z,12.70
2018-12-08T22:00:25.130Z,13.23
2018-12-08T22:02:54.318Z,10.03
2018-12-08T22:05:23.289Z,9.03
2018-12-08T22:07:52.248Z,8.90
2018-12-08T22:10:21.225Z,10.67
2018-12-08T22:12:50.175Z,9.10
2018-12-08T22:15:19.139Z,14.10
2018-12-08T22:17:48.084Z,15.00
2018-12-08T22:20:17.056Z,15.90
2018-12-08T22:22:45.988Z,13.00
2018-12-08T22:25:14.945Z,14.33
2018-12-08T22:27:43.873Z,19.87
2018-12-08T22:30:12.802Z,19.93
2018-12-08T22:32:41.782Z,19.30
2018-12-08T22:35:10.742Z,11.33
2018-12-08T22:37:39.856Z,11.50
2018-12-08T22:40:09.151Z,12.57
2018-12-08T22:42:38.140Z,12.03
2018-12-08T22:45:07.202Z,14.40
2018-12-08T22:47:36.151Z,11.77
2018-12-08T22:50:06.040Z,11.18
2018-12-08T22:52:35.191Z,11.10
2018-12-08T22:55:04.678Z,11.53
2018-12-08T22:57:33.585Z,13.03
2018-12-08T23:00:13.427Z,13.63
2018-12-08T23:02:42.383Z,17.40
2018-12-08T23:05:11.302Z,16.10
2018-12-08T23:07:40.485Z,15.60
2018-12-08T23:10:09.418Z,14.57
2018-12-08T23:12:39.239Z,19.23
2018-12-08T23:15:08.241Z,16.50
2018-12-08T23:17:37.211Z,16.40
2018-12-08T23:20:07.244Z,17.27
2018-12-08T23:22:36.319Z,18.10
2018-12-08T23:25:05.489Z,17.87
2018-12-08T23:27:34.433Z,17.23
2018-12-08T23:30:05.987Z,14.97
2018-12-08T23:32:34.937Z,13.53
2018-12-08T23:35:05.239Z,14.47
2018-12-08T23:37:34.194Z,15.90
2018-12-08T23:40:05.172Z,12.80
2018-12-08T23:42:34.183Z,12.97
2018-12-08T23:45:03.277Z,13.93
2018-12-08T23:47:32.393Z,15.40
2018-12-08T23:50:01.359Z,11.73
2018-12-08T23:52:30.317Z,10.37
2018-12-08T23:54:59.327Z,8.87
2018-12-08T23:57:28.274Z,13.90
2018-12-08T23:59:57.544Z,14.07
